sensor_id;sensor_type;location;lat;lon;timestamp;P1;durP1;ratioP1;P2;durP2;ratioP2
49488;SDS011;35382;51.484;11.476;2023-06-22T00:00:54;21.60;;;14.82;;
49488;SDS011;35382;51.484;11.476;2023-06-22T00:02:35;21.38;;;14.32;;
49488;SDS011;35382;51.484;11.476;2023-06-22T00:04:16;18.77;;;14.02;;
49488;SDS011;35382;51.484;11.476;2023-06-22T00:05:57;17.50;;;14.38;;
49488;SDS011;35382;51.484;11.476;2023-06-22T00:07:38;20.55;;;12.75;;
49488;SDS011;35382;51.484;11.476;2023-06-22T00:09:19;18.33;;;13.13;;
49488;SDS011;35382;51.484;11.476;2023-06-22T00:11:01;16.27;;;12.45;;
49488;SDS011;35382;51.484;11.476;2023-06-22T00:12:42;15.70;;;13.68;;
49488;SDS011;35382;51.484;11.476;2023-06-22T00:14:23;21.33;;;13.15;;
49488;SDS011;35382;51.484;11.476;2023-06-22T00:16:04;15.48;;;13.20;;
49488;SDS011;35382;51.484;11.476;2023-06-22T00:17:45;18.70;;;13.55;;
49488;SDS011;35382;51.484;11.476;2023-06-22T00:19:26;21.08;;;13.68;;
49488;SDS011;35382;51.484;11.476;2023-06-22T00:21:07;21.38;;;14.00;;
49488;SDS011;35382;51.484;11.476;2023-06-22T00:22:48;20.40;;;14.32;;
49488;SDS011;35382;51.484;11.476;2023-06-22T00:24:29;18.83;;;13.25;;
49488;SDS011;35382;51.484;11.476;2023-06-22T00:26:10;15.82;;;12.38;;
49488;SDS011;35382;51.484;11.476;2023-06-22T00:27:52;20.08;;;12.68;;
49488;SDS011;35382;51.484;11.476;2023-06-22T00:29:33;19.17;;;14.07;;
49488;SDS011;35382;51.484;11.476;2023-06-22T00:31:14;17.30;;;13.60;;
49488;SDS011;35382;51.484;11.476;2023-06-22T00:32:55;18.80;;;12.82;;
49488;SDS011;35382;51.484;11.476;2023-06-22T00:34:36;16.67;;;13.05;;
49488;SDS011;35382;51.484;11.476;2023-06-22T00:36:17;17.85;;;13.75;;
49488;SDS011;35382;51.484;11.476;2023-06-22T00:38:00;18.92;;;12.68;;
49488;SDS011;35382;51.484;11.476;2023-06-22T00:39:42;19.13;;;13.98;;
49488;SDS011;35382;51.484;11.476;2023-06-22T00:41:23;18.20;;;13.93;;
49488;SDS011;35382;51.484;11.476;2023-06-22T00:43:04;18.00;;;13.43;;
49488;SDS011;35382;51.484;11.476;2023-06-22T00:44:46;16.95;;;13.30;;
49488;SDS011;35382;51.484;11.476;2023-06-22T00:46:27;17.95;;;14.68;;
49488;SDS011;35382;51.484;11.476;2023-06-22T00:48:08;16.48;;;14.63;;
49488;SDS011;35382;51.484;11.476;2023-06-22T00:49:49;18.17;;;14.73;;
49488;SDS011;35382;51.484;11.476;2023-06-22T00:51:33;16.70;;;15.00;;
49488;SDS011;35382;51.484;11.476;2023-06-22T00:53:19;17.58;;;13.85;;
49488;SDS011;35382;51.484;11.476;2023-06-22T00:55:00;20.48;;;14.57;;
49488;SDS011;35382;51.484;11.476;2023-06-22T00:56:42;17.98;;;13.70;;
49488;SDS011;35382;51.484;11.476;2023-06-22T00:58:23;19.80;;;13.63;;
49488;SDS011;35382;51.484;11.476;2023-06-22T01:00:05;22.75;;;13.27;;
49488;SDS011;35382;51.484;11.476;2023-06-22T01:01:49;18.33;;;13.10;;
49488;SDS011;35382;51.484;11.476;2023-06-22T01:03:30;19.02;;;13.88;;
49488;SDS011;35382;51.484;11.476;2023-06-22T01:05:12;23.35;;;16.23;;
49488;SDS011;35382;51.484;11.476;2023-06-22T01:09:16;17.25;;;15.35;;
49488;SDS011;35382;51.484;11.476;2023-06-22T01:11:19;20.85;;;14.90;;
49488;SDS011;35382;51.484;11.476;2023-06-22T01:13:21;24.00;;;14.38;;
49488;SDS011;35382;51.484;11.476;2023-06-22T01:15:05;19.10;;;14.32;;
49488;SDS011;35382;51.484;11.476;2023-06-22T01:16:50;16.80;;;12.52;;
49488;SDS011;35382;51.484;11.476;2023-06-22T01:18:33;22.00;;;15.50;;
49488;SDS011;35382;51.484;11.476;2023-06-22T01:20:17;17.75;;;13.45;;
49488;SDS011;35382;51.484;11.476;2023-06-22T01:21:58;22.35;;;13.85;;
49488;SDS011;35382;51.484;11.476;2023-06-22T01:23:50;17.00;;;13.07;;
49488;SDS011;35382;51.484;11.476;2023-06-22T01:25:56;20.08;;;13.30;;
49488;SDS011;35382;51.484;11.476;2023-06-22T01:28:03;24.23;;;12.50;;
49488;SDS011;35382;51.484;11.476;2023-06-22T01:29:56;21.05;;;13.23;;
49488;SDS011;35382;51.484;11.476;2023-06-22T01:31:40;18.63;;;13.38;;
49488;SDS011;35382;51.484;11.476;2023-06-22T01:33:25;14.23;;;12.35;;
49488;SDS011;35382;51.484;11.476;2023-06-22T01:35:08;18.42;;;13.43;;
49488;SDS011;35382;51.484;11.476;2023-06-22T01:36:51;16.55;;;13.35;;
49488;SDS011;35382;51.484;11.476;2023-06-22T01:38:33;16.00;;;12.65;;
49488;SDS011;35382;51.484;11.476;2023-06-22T01:40:16;14.50;;;12.93;;
49488;SDS011;35382;51.484;11.476;2023-06-22T01:41:59;17.40;;;13.25;;
49488;SDS011;35382;51.484;11.476;2023-06-22T01:43:40;19.00;;;13.68;;
49488;SDS011;35382;51.484;11.476;2023-06-22T01:45:21;16.27;;;12.73;;
49488;SDS011;35382;51.484;11.476;2023-06-22T01:47:04;18.83;;;13.50;;
49488;SDS011;35382;51.484;11.476;2023-06-22T01:48:45;16.83;;;12.90;;
49488;SDS011;35382;51.484;11.476;2023-06-22T01:50:27;17.42;;;11.85;;
49488;SDS011;35382;51.484;11.476;2023-06-22T01:52:10;15.98;;;12.25;;
49488;SDS011;35382;51.484;11.476;2023-06-22T01:53:51;18.38;;;12.25;;
49488;SDS011;35382;51.484;11.476;2023-06-22T01:55:33;16.15;;;12.70;;
49488;SDS011;35382;51.484;11.476;2023-06-22T01:57:14;23.15;;;13.32;;
49488;SDS011;35382;51.484;11.476;2023-06-22T01:59:42;19.95;;;12.35;;
49488;SDS011;35382;51.484;11.476;2023-06-22T02:01:11;19.52;;;12.95;;
49488;SDS011;35382;51.484;11.476;2023-06-22T02:06:23;22.13;;;12.93;;
49488;SDS011;35382;51.484;11.476;2023-06-22T02:08:11;20.63;;;12.25;;
49488;SDS011;35382;51.484;11.476;2023-06-22T02:09:57;26.17;;;14.52;;
49488;SDS011;35382;51.484;11.476;2023-06-22T02:11:40;24.17;;;15.27;;
49488;SDS011;35382;51.484;11.476;2023-06-22T02:13:23;24.20;;;15.45;;
49488;SDS011;35382;51.484;11.476;2023-06-22T02:15:06;25.60;;;15.40;;
49488;SDS011;35382;51.484;11.476;2023-06-22T02:16:47;22.98;;;15.77;;
49488;SDS011;35382;51.484;11.476;2023-06-22T02:18:29;24.63;;;14.57;;
49488;SDS011;35382;51.484;11.476;2023-06-22T02:20:13;20.25;;;14.77;;
49488;SDS011;35382;51.484;11.476;2023-06-22T02:21:56;20.10;;;15.48;;
49488;SDS011;35382;51.484;11.476;2023-06-22T02:23:37;17.63;;;13.95;;
49488;SDS011;35382;51.484;11.476;2023-06-22T02:25:18;20.48;;;15.90;;
49488;SDS011;35382;51.484;11.476;2023-06-22T02:27:01;17.48;;;15.32;;
49488;SDS011;35382;51.484;11.476;2023-06-22T02:28:42;19.58;;;15.40;;
49488;SDS011;35382;51.484;11.476;2023-06-22T02:30:23;21.52;;;15.75;;
49488;SDS011;35382;51.484;11.476;2023-06-22T02:32:05;24.00;;;17.58;;
49488;SDS011;35382;51.484;11.476;2023-06-22T02:33:46;21.98;;;17.73;;
49488;SDS011;35382;51.484;11.476;2023-06-22T02:35:28;21.02;;;17.27;;
49488;SDS011;35382;51.484;11.476;2023-06-22T02:37:12;19.73;;;16.17;;
49488;SDS011;35382;51.484;11.476;2023-06-22T02:38:55;19.02;;;16.15;;
49488;SDS011;35382;51.484;11.476;2023-06-22T02:40:41;18.30;;;16.30;;
49488;SDS011;35382;51.484;11.476;2023-06-22T02:42:22;23.33;;;16.90;;
49488;SDS011;35382;51.484;11.476;2023-06-22T02:44:03;18.88;;;15.77;;
49488;SDS011;35382;51.484;11.476;2023-06-22T02:45:45;19.88;;;16.42;;
49488;SDS011;35382;51.484;11.476;2023-06-22T02:47:26;20.42;;;15.73;;
49488;SDS011;35382;51.484;11.476;2023-06-22T02:49:07;19.92;;;17.00;;
49488;SDS011;35382;51.484;11.476;2023-06-22T02:50:48;19.30;;;16.17;;
49488;SDS011;35382;51.484;11.476;2023-06-22T02:52:29;19.95;;;16.40;;
49488;SDS011;35382;51.484;11.476;2023-06-22T02:54:11;20.00;;;16.38;;
49488;SDS011;35382;51.484;11.476;2023-06-22T02:55:52;19.58;;;16.35;;
49488;SDS011;35382;51.484;11.476;2023-06-22T02:57:33;20.13;;;16.55;;
49488;SDS011;35382;51.484;11.476;2023-06-22T02:59:14;18.70;;;16.52;;
49488;SDS011;35382;51.484;11.476;2023-06-22T03:00:55;18.83;;;16.08;;
49488;SDS011;35382;51.484;11.476;2023-06-22T03:02:36;19.92;;;16.52;;
49488;SDS011;35382;51.484;11.476;2023-06-22T03:04:18;19.42;;;17.17;;
49488;SDS011;35382;51.484;11.476;2023-06-22T03:05:58;18.52;;;15.55;;
49488;SDS011;35382;51.484;11.476;2023-06-22T03:07:41;19.15;;;16.10;;
49488;SDS011;35382;51.484;11.476;2023-06-22T03:09:24;20.48;;;16.02;;
49488;SDS011;35382;51.484;11.476;2023-06-22T03:11:05;18.63;;;16.38;;
49488;SDS011;35382;51.484;11.476;2023-06-22T03:12:46;21.80;;;16.17;;
49488;SDS011;35382;51.484;11.476;2023-06-22T03:14:27;19.45;;;16.80;;
49488;SDS011;35382;51.484;11.476;2023-06-22T03:16:08;19.17;;;16.33;;
49488;SDS011;35382;51.484;11.476;2023-06-22T03:17:49;20.75;;;16.30;;
49488;SDS011;35382;51.484;11.476;2023-06-22T03:19:30;19.73;;;17.27;;
49488;SDS011;35382;51.484;11.476;2023-06-22T03:21:12;18.15;;;16.20;;
49488;SDS011;35382;51.484;11.476;2023-06-22T03:22:52;19.10;;;17.20;;
49488;SDS011;35382;51.484;11.476;2023-06-22T03:24:33;18.95;;;16.95;;
49488;SDS011;35382;51.484;11.476;2023-06-22T03:26:18;20.02;;;16.23;;
49488;SDS011;35382;51.484;11.476;2023-06-22T03:27:59;18.42;;;16.45;;
49488;SDS011;35382;51.484;11.476;2023-06-22T03:29:41;19.65;;;16.17;;
49488;SDS011;35382;51.484;11.476;2023-06-22T03:31:22;20.65;;;16.55;;
49488;SDS011;35382;51.484;11.476;2023-06-22T03:33:04;23.70;;;20.35;;
49488;SDS011;35382;51.484;11.476;2023-06-22T03:34:47;57.15;;;36.42;;
49488;SDS011;35382;51.484;11.476;2023-06-22T03:36:28;24.48;;;18.48;;
49488;SDS011;35382;51.484;11.476;2023-06-22T03:38:09;21.40;;;17.30;;
49488;SDS011;35382;51.484;11.476;2023-06-22T03:39:50;21.58;;;16.90;;
49488;SDS011;35382;51.484;11.476;2023-06-22T03:41:31;18.10;;;16.23;;
49488;SDS011;35382;51.484;11.476;2023-06-22T03:43:12;21.23;;;16.95;;
49488;SDS011;35382;51.484;11.476;2023-06-22T03:44:56;21.33;;;17.00;;
49488;SDS011;35382;51.484;11.476;2023-06-22T03:46:36;20.92;;;17.17;;
49488;SDS011;35382;51.484;11.476;2023-06-22T03:48:17;19.80;;;17.38;;
49488;SDS011;35382;51.484;11.476;2023-06-22T03:49:58;21.25;;;17.45;;
49488;SDS011;35382;51.484;11.476;2023-06-22T03:51:39;18.67;;;16.67;;
49488;SDS011;35382;51.484;11.476;2023-06-22T03:53:20;18.42;;;16.27;;
49488;SDS011;35382;51.484;11.476;2023-06-22T03:55:01;18.98;;;15.55;;
49488;SDS011;35382;51.484;11.476;2023-06-22T03:56:42;19.70;;;16.63;;
49488;SDS011;35382;51.484;11.476;2023-06-22T03:58:23;19.13;;;17.10;;
49488;SDS011;35382;51.484;11.476;2023-06-22T04:00:04;19.95;;;16.30;;
49488;SDS011;35382;51.484;11.476;2023-06-22T04:01:52;19.48;;;16.48;;
49488;SDS011;35382;51.484;11.476;2023-06-22T04:03:33;22.20;;;16.77;;
49488;SDS011;35382;51.484;11.476;2023-06-22T04:05:14;23.13;;;16.95;;
49488;SDS011;35382;51.484;11.476;2023-06-22T04:06:58;20.52;;;17.00;;
49488;SDS011;35382;51.484;11.476;2023-06-22T04:08:38;18.95;;;16.30;;
49488;SDS011;35382;51.484;11.476;2023-06-22T04:10:19;21.88;;;17.17;;
49488;SDS011;35382;51.484;11.476;2023-06-22T04:12:01;18.05;;;16.15;;
49488;SDS011;35382;51.484;11.476;2023-06-22T04:13:42;22.02;;;17.05;;
49488;SDS011;35382;51.484;11.476;2023-06-22T04:15:23;19.20;;;15.57;;
49488;SDS011;35382;51.484;11.476;2023-06-22T04:17:04;19.60;;;16.48;;
49488;SDS011;35382;51.484;11.476;2023-06-22T04:18:45;22.00;;;17.30;;
49488;SDS011;35382;51.484;11.476;2023-06-22T04:20:26;18.42;;;16.20;;
49488;SDS011;35382;51.484;11.476;2023-06-22T04:22:07;21.13;;;15.82;;
49488;SDS011;35382;51.484;11.476;2023-06-22T04:23:48;20.30;;;18.17;;
49488;SDS011;35382;51.484;11.476;2023-06-22T04:25:29;18.15;;;16.13;;
49488;SDS011;35382;51.484;11.476;2023-06-22T04:27:10;19.92;;;16.83;;
49488;SDS011;35382;51.484;11.476;2023-06-22T04:28:51;18.25;;;16.35;;
49488;SDS011;35382;51.484;11.476;2023-06-22T04:30:36;18.67;;;16.77;;
49488;SDS011;35382;51.484;11.476;2023-06-22T04:32:17;23.13;;;18.70;;
49488;SDS011;35382;51.484;11.476;2023-06-22T04:33:59;20.20;;;17.52;;
49488;SDS011;35382;51.484;11.476;2023-06-22T04:37:27;22.65;;;17.88;;
49488;SDS011;35382;51.484;11.476;2023-06-22T04:39:09;19.25;;;17.15;;
49488;SDS011;35382;51.484;11.476;2023-06-22T04:40:51;23.92;;;18.35;;
49488;SDS011;35382;51.484;11.476;2023-06-22T04:42:34;23.45;;;18.48;;
49488;SDS011;35382;51.484;11.476;2023-06-22T04:44:17;20.88;;;17.42;;
49488;SDS011;35382;51.484;11.476;2023-06-22T04:46:05;19.90;;;16.83;;
49488;SDS011;35382;51.484;11.476;2023-06-22T04:47:46;22.60;;;18.05;;
49488;SDS011;35382;51.484;11.476;2023-06-22T04:49:27;32.55;;;17.67;;
49488;SDS011;35382;51.484;11.476;2023-06-22T04:51:16;18.38;;;16.48;;
49488;SDS011;35382;51.484;11.476;2023-06-22T04:53:02;23.15;;;17.25;;
49488;SDS011;35382;51.484;11.476;2023-06-22T04:54:47;19.02;;;16.20;;
49488;SDS011;35382;51.484;11.476;2023-06-22T04:56:36;19.67;;;16.83;;
49488;SDS011;35382;51.484;11.476;2023-06-22T04:58:17;22.33;;;17.00;;
49488;SDS011;35382;51.484;11.476;2023-06-22T05:00:00;21.85;;;17.08;;
49488;SDS011;35382;51.484;11.476;2023-06-22T05:01:42;20.33;;;17.90;;
49488;SDS011;35382;51.484;11.476;2023-06-22T05:03:24;20.67;;;18.48;;
49488;SDS011;35382;51.484;11.476;2023-06-22T05:05:06;21.42;;;19.08;;
49488;SDS011;35382;51.484;11.476;2023-06-22T05:06:48;22.70;;;18.83;;
49488;SDS011;35382;51.484;11.476;2023-06-22T05:08:28;23.00;;;20.55;;
49488;SDS011;35382;51.484;11.476;2023-06-22T05:10:10;22.20;;;19.83;;
49488;SDS011;35382;51.484;11.476;2023-06-22T05:11:52;22.48;;;20.08;;
49488;SDS011;35382;51.484;11.476;2023-06-22T05:13:33;23.90;;;20.17;;
49488;SDS011;35382;51.484;11.476;2023-06-22T05:15:14;22.40;;;19.83;;
49488;SDS011;35382;51.484;11.476;2023-06-22T05:16:56;23.77;;;19.80;;
49488;SDS011;35382;51.484;11.476;2023-06-22T05:18:39;22.30;;;19.02;;
49488;SDS011;35382;51.484;11.476;2023-06-22T05:20:20;22.25;;;19.67;;
49488;SDS011;35382;51.484;11.476;2023-06-22T05:22:02;21.85;;;19.02;;
49488;SDS011;35382;51.484;11.476;2023-06-22T05:23:43;24.58;;;19.35;;
49488;SDS011;35382;51.484;11.476;2023-06-22T05:25:24;21.77;;;19.50;;
49488;SDS011;35382;51.484;11.476;2023-06-22T05:27:05;24.23;;;21.48;;
49488;SDS011;35382;51.484;11.476;2023-06-22T05:28:49;23.27;;;20.20;;
49488;SDS011;35382;51.484;11.476;2023-06-22T05:30:30;23.15;;;20.60;;
49488;SDS011;35382;51.484;11.476;2023-06-22T05:32:11;25.40;;;21.83;;
49488;SDS011;35382;51.484;11.476;2023-06-22T05:33:55;24.08;;;19.58;;
49488;SDS011;35382;51.484;11.476;2023-06-22T05:35:37;25.05;;;20.88;;
49488;SDS011;35382;51.484;11.476;2023-06-22T05:37:20;24.67;;;20.08;;
49488;SDS011;35382;51.484;11.476;2023-06-22T05:39:10;22.70;;;19.98;;
49488;SDS011;35382;51.484;11.476;2023-06-22T05:40:53;24.33;;;20.10;;
49488;SDS011;35382;51.484;11.476;2023-06-22T05:42:33;26.15;;;20.88;;
49488;SDS011;35382;51.484;11.476;2023-06-22T05:44:18;24.17;;;20.40;;
49488;SDS011;35382;51.484;11.476;2023-06-22T05:46:00;23.20;;;19.95;;
49488;SDS011;35382;51.484;11.476;2023-06-22T05:47:41;25.20;;;21.08;;
49488;SDS011;35382;51.484;11.476;2023-06-22T05:49:22;24.10;;;21.60;;
49488;SDS011;35382;51.484;11.476;2023-06-22T05:51:05;24.65;;;20.63;;
49488;SDS011;35382;51.484;11.476;2023-06-22T05:52:47;23.60;;;21.10;;
49488;SDS011;35382;51.484;11.476;2023-06-22T05:54:28;25.85;;;22.35;;
49488;SDS011;35382;51.484;11.476;2023-06-22T05:56:16;22.77;;;20.30;;
49488;SDS011;35382;51.484;11.476;2023-06-22T05:57:57;23.77;;;21.27;;
49488;SDS011;35382;51.484;11.476;2023-06-22T05:59:40;24.33;;;21.70;;
49488;SDS011;35382;51.484;11.476;2023-06-22T06:01:20;24.17;;;21.45;;
49488;SDS011;35382;51.484;11.476;2023-06-22T06:03:07;23.40;;;21.00;;
49488;SDS011;35382;51.484;11.476;2023-06-22T06:04:49;23.63;;;20.65;;
49488;SDS011;35382;51.484;11.476;2023-06-22T06:06:31;24.15;;;21.70;;
49488;SDS011;35382;51.484;11.476;2023-06-22T06:08:14;24.30;;;20.33;;
49488;SDS011;35382;51.484;11.476;2023-06-22T06:09:56;23.13;;;20.70;;
49488;SDS011;35382;51.484;11.476;2023-06-22T06:11:37;24.48;;;20.60;;
49488;SDS011;35382;51.484;11.476;2023-06-22T06:13:20;23.00;;;20.50;;
49488;SDS011;35382;51.484;11.476;2023-06-22T06:15:01;23.50;;;21.02;;
49488;SDS011;35382;51.484;11.476;2023-06-22T06:16:42;23.52;;;20.98;;
49488;SDS011;35382;51.484;11.476;2023-06-22T06:18:23;22.30;;;19.90;;
49488;SDS011;35382;51.484;11.476;2023-06-22T06:20:04;24.05;;;21.30;;
49488;SDS011;35382;51.484;11.476;2023-06-22T06:21:50;22.48;;;20.13;;
49488;SDS011;35382;51.484;11.476;2023-06-22T06:23:31;23.98;;;21.50;;
49488;SDS011;35382;51.484;11.476;2023-06-22T06:25:17;24.58;;;21.50;;
49488;SDS011;35382;51.484;11.476;2023-06-22T06:27:00;22.52;;;20.23;;
49488;SDS011;35382;51.484;11.476;2023-06-22T06:28:45;22.77;;;20.40;;
49488;SDS011;35382;51.484;11.476;2023-06-22T06:30:26;22.15;;;19.85;;
49488;SDS011;35382;51.484;11.476;2023-06-22T06:32:07;23.75;;;21.17;;
49488;SDS011;35382;51.484;11.476;2023-06-22T06:33:49;23.50;;;20.98;;
49488;SDS011;35382;51.484;11.476;2023-06-22T06:35:30;26.00;;;20.88;;
49488;SDS011;35382;51.484;11.476;2023-06-22T06:37:11;24.08;;;21.10;;
49488;SDS011;35382;51.484;11.476;2023-06-22T06:38:54;23.90;;;21.42;;
49488;SDS011;35382;51.484;11.476;2023-06-22T06:40:35;23.52;;;21.05;;
49488;SDS011;35382;51.484;11.476;2023-06-22T06:42:16;23.13;;;20.80;;
49488;SDS011;35382;51.484;11.476;2023-06-22T06:43:57;23.02;;;20.70;;
49488;SDS011;35382;51.484;11.476;2023-06-22T06:45:38;27.27;;;21.65;;
49488;SDS011;35382;51.484;11.476;2023-06-22T06:47:19;24.90;;;20.27;;
49488;SDS011;35382;51.484;11.476;2023-06-22T06:49:01;23.83;;;21.35;;
49488;SDS011;35382;51.484;11.476;2023-06-22T06:50:43;22.73;;;20.25;;
49488;SDS011;35382;51.484;11.476;2023-06-22T06:52:24;22.90;;;20.50;;
49488;SDS011;35382;51.484;11.476;2023-06-22T06:54:11;23.80;;;20.98;;
49488;SDS011;35382;51.484;11.476;2023-06-22T06:55:56;24.48;;;21.30;;
49488;SDS011;35382;51.484;11.476;2023-06-22T06:57:37;23.92;;;21.48;;
49488;SDS011;35382;51.484;11.476;2023-06-22T06:59:19;23.90;;;21.38;;
49488;SDS011;35382;51.484;11.476;2023-06-22T07:01:01;24.10;;;21.35;;
49488;SDS011;35382;51.484;11.476;2023-06-22T07:02:42;23.25;;;20.88;;
49488;SDS011;35382;51.484;11.476;2023-06-22T07:04:24;23.17;;;20.85;;
49488;SDS011;35382;51.484;11.476;2023-06-22T07:06:05;24.80;;;22.20;;
49488;SDS011;35382;51.484;11.476;2023-06-22T07:07:46;24.48;;;20.17;;
49488;SDS011;35382;51.484;11.476;2023-06-22T07:09:27;23.73;;;19.48;;
49488;SDS011;35382;51.484;11.476;2023-06-22T07:11:08;23.40;;;19.88;;
49488;SDS011;35382;51.484;11.476;2023-06-22T07:12:49;24.52;;;21.02;;
49488;SDS011;35382;51.484;11.476;2023-06-22T07:14:30;22.13;;;19.83;;
49488;SDS011;35382;51.484;11.476;2023-06-22T07:16:13;22.23;;;19.92;;
49488;SDS011;35382;51.484;11.476;2023-06-22T07:17:54;22.52;;;20.23;;
49488;SDS011;35382;51.484;11.476;2023-06-22T07:19:35;23.95;;;20.98;;
49488;SDS011;35382;51.484;11.476;2023-06-22T07:21:16;22.52;;;20.13;;
49488;SDS011;35382;51.484;11.476;2023-06-22T07:22:58;22.88;;;20.38;;
49488;SDS011;35382;51.484;11.476;2023-06-22T07:24:39;22.77;;;20.35;;
49488;SDS011;35382;51.484;11.476;2023-06-22T07:26:20;24.40;;;20.88;;
49488;SDS011;35382;51.484;11.476;2023-06-22T07:28:02;22.00;;;19.70;;
49488;SDS011;35382;51.484;11.476;2023-06-22T07:29:45;20.65;;;18.50;;
49488;SDS011;35382;51.484;11.476;2023-06-22T07:31:26;20.65;;;18.48;;
49488;SDS011;35382;51.484;11.476;2023-06-22T07:33:07;21.55;;;19.27;;
49488;SDS011;35382;51.484;11.476;2023-06-22T07:34:48;22.02;;;19.63;;
49488;SDS011;35382;51.484;11.476;2023-06-22T07:36:29;19.92;;;17.92;;
49488;SDS011;35382;51.484;11.476;2023-06-22T07:38:12;21.70;;;18.27;;
49488;SDS011;35382;51.484;11.476;2023-06-22T07:39:55;20.83;;;18.30;;
49488;SDS011;35382;51.484;11.476;2023-06-22T07:41:39;24.67;;;19.02;;
49488;SDS011;35382;51.484;11.476;2023-06-22T07:43:23;21.00;;;18.90;;
49488;SDS011;35382;51.484;11.476;2023-06-22T07:45:06;20.40;;;18.30;;
49488;SDS011;35382;51.484;11.476;2023-06-22T07:46:51;20.92;;;18.67;;
49488;SDS011;35382;51.484;11.476;2023-06-22T07:48:32;18.73;;;16.83;;
49488;SDS011;35382;51.484;11.476;2023-06-22T07:50:13;21.02;;;18.85;;
49488;SDS011;35382;51.484;11.476;2023-06-22T07:51:54;20.02;;;17.98;;
49488;SDS011;35382;51.484;11.476;2023-06-22T07:53:35;20.35;;;18.25;;
49488;SDS011;35382;51.484;11.476;2023-06-22T07:55:16;21.70;;;19.42;;
49488;SDS011;35382;51.484;11.476;2023-06-22T07:56:58;21.90;;;19.38;;
49488;SDS011;35382;51.484;11.476;2023-06-22T07:58:39;21.13;;;19.02;;
49488;SDS011;35382;51.484;11.476;2023-06-22T08:00:23;21.17;;;18.98;;
49488;SDS011;35382;51.484;11.476;2023-06-22T08:02:04;20.27;;;18.08;;
49488;SDS011;35382;51.484;11.476;2023-06-22T08:03:45;20.55;;;18.38;;
49488;SDS011;35382;51.484;11.476;2023-06-22T08:05:28;20.15;;;18.02;;
49488;SDS011;35382;51.484;11.476;2023-06-22T08:07:10;19.45;;;17.35;;
49488;SDS011;35382;51.484;11.476;2023-06-22T08:08:52;19.75;;;17.50;;
49488;SDS011;35382;51.484;11.476;2023-06-22T08:10:34;19.35;;;17.33;;
49488;SDS011;35382;51.484;11.476;2023-06-22T08:12:18;21.05;;;16.58;;
49488;SDS011;35382;51.484;11.476;2023-06-22T08:13:59;17.55;;;15.85;;
49488;SDS011;35382;51.484;11.476;2023-06-22T08:15:43;20.13;;;17.88;;
49488;SDS011;35382;51.484;11.476;2023-06-22T08:17:24;17.88;;;16.08;;
49488;SDS011;35382;51.484;11.476;2023-06-22T08:19:05;17.55;;;15.63;;
49488;SDS011;35382;51.484;11.476;2023-06-22T08:20:46;19.83;;;16.55;;
49488;SDS011;35382;51.484;11.476;2023-06-22T08:22:27;17.02;;;15.32;;
49488;SDS011;35382;51.484;11.476;2023-06-22T08:24:08;21.40;;;16.75;;
49488;SDS011;35382;51.484;11.476;2023-06-22T08:25:49;18.38;;;16.40;;
49488;SDS011;35382;51.484;11.476;2023-06-22T08:27:33;17.02;;;15.23;;
49488;SDS011;35382;51.484;11.476;2023-06-22T08:29:21;16.38;;;14.68;;
49488;SDS011;35382;51.484;11.476;2023-06-22T08:31:09;18.27;;;15.77;;
49488;SDS011;35382;51.484;11.476;2023-06-22T08:32:56;17.50;;;15.63;;
49488;SDS011;35382;51.484;11.476;2023-06-22T08:34:37;16.98;;;15.18;;
49488;SDS011;35382;51.484;11.476;2023-06-22T08:36:22;16.10;;;14.40;;
49488;SDS011;35382;51.484;11.476;2023-06-22T08:38:03;17.23;;;15.32;;
49488;SDS011;35382;51.484;11.476;2023-06-22T08:39:48;17.83;;;15.95;;
49488;SDS011;35382;51.484;11.476;2023-06-22T08:41:29;18.73;;;16.73;;
49488;SDS011;35382;51.484;11.476;2023-06-22T08:43:13;17.83;;;15.95;;
49488;SDS011;35382;51.484;11.476;2023-06-22T08:44:56;18.02;;;15.80;;
49488;SDS011;35382;51.484;11.476;2023-06-22T08:46:37;18.92;;;15.63;;
49488;SDS011;35382;51.484;11.476;2023-06-22T08:48:21;17.08;;;15.13;;
49488;SDS011;35382;51.484;11.476;2023-06-22T08:50:04;17.58;;;15.73;;
49488;SDS011;35382;51.484;11.476;2023-06-22T08:51:52;18.17;;;15.68;;
49488;SDS011;35382;51.484;11.476;2023-06-22T08:53:42;17.92;;;15.93;;
49488;SDS011;35382;51.484;11.476;2023-06-22T08:55:27;18.20;;;15.98;;
49488;SDS011;35382;51.484;11.476;2023-06-22T08:57:09;17.63;;;15.57;;
49488;SDS011;35382;51.484;11.476;2023-06-22T08:58:50;16.42;;;14.73;;
49488;SDS011;35382;51.484;11.476;2023-06-22T09:00:36;18.65;;;16.17;;
49488;SDS011;35382;51.484;11.476;2023-06-22T09:02:18;17.75;;;15.88;;
49488;SDS011;35382;51.484;11.476;2023-06-22T09:04:00;17.17;;;15.38;;
49488;SDS011;35382;51.484;11.476;2023-06-22T09:05:41;17.85;;;15.40;;
49488;SDS011;35382;51.484;11.476;2023-06-22T09:07:25;18.17;;;15.40;;
49488;SDS011;35382;51.484;11.476;2023-06-22T09:09:06;18.02;;;16.17;;
49488;SDS011;35382;51.484;11.476;2023-06-22T09:10:47;18.10;;;16.23;;
49488;SDS011;35382;51.484;11.476;2023-06-22T09:12:31;19.23;;;17.23;;
49488;SDS011;35382;51.484;11.476;2023-06-22T09:14:13;18.70;;;16.90;;
49488;SDS011;35382;51.484;11.476;2023-06-22T09:15:54;18.35;;;16.40;;
49488;SDS011;35382;51.484;11.476;2023-06-22T09:17:41;19.30;;;17.40;;
49488;SDS011;35382;51.484;11.476;2023-06-22T09:19:24;17.75;;;15.95;;
49488;SDS011;35382;51.484;11.476;2023-06-22T09:21:05;18.98;;;16.98;;
49488;SDS011;35382;51.484;11.476;2023-06-22T09:22:46;19.05;;;15.63;;
49488;SDS011;35382;51.484;11.476;2023-06-22T09:24:28;17.60;;;15.80;;
49488;SDS011;35382;51.484;11.476;2023-06-22T09:26:09;18.67;;;16.67;;
49488;SDS011;35382;51.484;11.476;2023-06-22T09:27:50;19.88;;;17.88;;
49488;SDS011;35382;51.484;11.476;2023-06-22T09:29:32;20.00;;;17.60;;
49488;SDS011;35382;51.484;11.476;2023-06-22T09:31:17;17.83;;;15.57;;
49488;SDS011;35382;51.484;11.476;2023-06-22T09:32:59;18.30;;;16.33;;
49488;SDS011;35382;51.484;11.476;2023-06-22T09:34:41;19.60;;;15.15;;
49488;SDS011;35382;51.484;11.476;2023-06-22T09:36:22;19.35;;;13.98;;
49488;SDS011;35382;51.484;11.476;2023-06-22T09:38:06;15.43;;;11.98;;
49488;SDS011;35382;51.484;11.476;2023-06-22T09:39:47;14.48;;;11.23;;
49488;SDS011;35382;51.484;11.476;2023-06-22T09:41:30;13.57;;;11.43;;
49488;SDS011;35382;51.484;11.476;2023-06-22T09:43:12;12.98;;;10.60;;
49488;SDS011;35382;51.484;11.476;2023-06-22T09:44:53;15.48;;;10.38;;
49488;SDS011;35382;51.484;11.476;2023-06-22T09:46:34;12.27;;;10.63;;
49488;SDS011;35382;51.484;11.476;2023-06-22T09:48:15;13.75;;;10.65;;
49488;SDS011;35382;51.484;11.476;2023-06-22T09:49:56;13.18;;;10.38;;
49488;SDS011;35382;51.484;11.476;2023-06-22T09:51:39;13.73;;;9.65;;
49488;SDS011;35382;51.484;11.476;2023-06-22T09:53:20;10.80;;;9.00;;
49488;SDS011;35382;51.484;11.476;2023-06-22T09:55:01;10.13;;;8.48;;
49488;SDS011;35382;51.484;11.476;2023-06-22T09:56:44;11.77;;;8.40;;
49488;SDS011;35382;51.484;11.476;2023-06-22T09:58:25;12.18;;;8.95;;